sensor_id;sensor_type;location;lat;lon;timestamp;P1;P4;P2;P0;N10;N4;N25;N1;N05;TS
43196;SPS30;28816;49.852;18.282;2023-11-22T00:03:35;11.900000;;11.780000;11.080000;;;;;;
43196;SPS30;28816;49.852;18.282;2023-11-22T00:08:37;12.160000;;12.040000;11.260000;;;;;;
43196;SPS30;28816;49.852;18.282;2023-11-22T00:13:39;12.830000;;12.620000;11.620000;;;;;;
43196;SPS30;28816;49.852;18.282;2023-11-22T00:18:41;12.310000;;12.140000;11.450000;;;;;;
43196;SPS30;28816;49.852;18.282;2023-11-22T00:23:43;12.710000;;12.720000;11.700000;;;;;;
43196;SPS30;28816;49.852;18.282;2023-11-22T00:28:45;12.580000;;12.470000;11.670000;;;;;;
43196;SPS30;28816;49.852;18.282;2023-11-22T00:33:47;12.600000;;12.400000;11.570000;;;;;;
43196;SPS30;28816;49.852;18.282;2023-11-22T00:38:49;13.100000;;13.050000;12.270000;;;;;;
43196;SPS30;28816;49.852;18.282;2023-11-22T00:43:51;12.740000;;12.600000;11.820000;;;;;;
43196;SPS30;28816;49.852;18.282;2023-11-22T00:48:54;13.020000;;12.790000;12.030000;;;;;;
43196;SPS30;28816;49.852;18.282;2023-11-22T00:53:56;14.080000;;13.910000;13.060000;;;;;;
43196;SPS30;28816;49.852;18.282;2023-11-22T00:58:58;13.810000;;13.730000;12.900000;;;;;;
43196;SPS30;28816;49.852;18.282;2023-11-22T01:04:00;14.250000;;13.960000;13.020000;;;;;;
43196;SPS30;28816;49.852;18.282;2023-11-22T01:09:02;17.270000;;16.950000;15.520000;;;;;;
43196;SPS30;28816;49.852;18.282;2023-11-22T01:14:04;17.470000;;16.890000;15.490000;;;;;;
43196;SPS30;28816;49.852;18.282;2023-11-22T01:19:06;17.390000;;16.690000;15.220000;;;;;;
43196;SPS30;28816;49.852;18.282;2023-11-22T01:24:08;13.940000;;13.620000;12.640000;;;;;;
43196;SPS30;28816;49.852;18.282;2023-11-22T01:29:11;12.580000;;12.460000;11.700000;;;;;;
43196;SPS30;28816;49.852;18.282;2023-11-22T01:34:13;12.070000;;11.950000;11.010000;;;;;;
43196;SPS30;28816;49.852;18.282;2023-11-22T01:39:15;10.580000;;10.460000;9.730000;;;;;;
43196;SPS30;28816;49.852;18.282;2023-11-22T01:44:17;10.040000;;9.960000;9.430000;;;;;;
43196;SPS30;28816;49.852;18.282;2023-11-22T01:49:20;10.280000;;10.260000;9.600000;;;;;;
43196;SPS30;28816;49.852;18.282;2023-11-22T01:54:22;9.500000;;9.470000;8.930000;;;;;;
43196;SPS30;28816;49.852;18.282;2023-11-22T01:59:24;8.840000;;8.750000;8.250000;;;;;;
43196;SPS30;28816;49.852;18.282;2023-11-22T02:04:28;10.150000;;10.140000;9.580000;;;;;;
43196;SPS30;28816;49.852;18.282;2023-11-22T02:09:30;10.580000;;10.490000;9.920000;;;;;;
43196;SPS30;28816;49.852;18.282;2023-11-22T02:14:32;10.170000;;10.010000;9.480000;;;;;;
43196;SPS30;28816;49.852;18.282;2023-11-22T02:19:34;11.220000;;11.210000;10.600000;;;;;;
43196;SPS30;28816;49.852;18.282;2023-11-22T02:24:36;11.300000;;11.190000;10.490000;;;;;;
43196;SPS30;28816;49.852;18.282;2023-11-22T02:29:39;10.210000;;10.160000;9.400000;;;;;;
43196;SPS30;28816;49.852;18.282;2023-11-22T02:34:41;10.990000;;10.840000;10.240000;;;;;;
43196;SPS30;28816;49.852;18.282;2023-11-22T02:39:43;11.110000;;11.010000;10.370000;;;;;;
43196;SPS30;28816;49.852;18.282;2023-11-22T02:44:52;12.020000;;11.980000;11.170000;;;;;;
43196;SPS30;28816;49.852;18.282;2023-11-22T02:49:54;12.730000;;12.730000;12.080000;;;;;;
43196;SPS30;28816;49.852;18.282;2023-11-22T02:54:56;14.420000;;14.180000;13.470000;;;;;;
43196;SPS30;28816;49.852;18.282;2023-11-22T02:59:58;14.540000;;14.480000;13.420000;;;;;;
43196;SPS30;28816;49.852;18.282;2023-11-22T03:05:00;14.070000;;13.950000;13.080000;;;;;;
43196;SPS30;28816;49.852;18.282;2023-11-22T03:10:02;13.810000;;13.750000;12.950000;;;;;;
43196;SPS30;28816;49.852;18.282;2023-11-22T03:15:05;17.620000;;17.130000;15.920000;;;;;;
43196;SPS30;28816;49.852;18.282;2023-11-22T03:20:08;18.180000;;17.750000;16.530000;;;;;;
43196;SPS30;28816;49.852;18.282;2023-11-22T03:25:11;15.900000;;15.810000;14.880000;;;;;;
43196;SPS30;28816;49.852;18.282;2023-11-22T03:30:13;16.830000;;16.720000;15.520000;;;;;;
43196;SPS30;28816;49.852;18.282;2023-11-22T03:35:15;17.900000;;17.660000;16.190000;;;;;;
43196;SPS30;28816;49.852;18.282;2023-11-22T03:40:17;19.140000;;18.750000;17.390000;;;;;;
43196;SPS30;28816;49.852;18.282;2023-11-22T03:45:19;19.370000;;18.980000;17.740000;;;;;;
43196;SPS30;28816;49.852;18.282;2023-11-22T03:50:22;19.320000;;19.250000;18.090000;;;;;;
43196;SPS30;28816;49.852;18.282;2023-11-22T03:55:24;20.870000;;20.590000;19.080000;;;;;;
43196;SPS30;28816;49.852;18.282;2023-11-22T04:00:26;20.440000;;20.040000;18.540000;;;;;;
43196;SPS30;28816;49.852;18.282;2023-11-22T04:05:29;20.950000;;20.560000;18.830000;;;;;;
43196;SPS30;28816;49.852;18.282;2023-11-22T04:10:31;20.600000;;20.430000;18.890000;;;;;;
43196;SPS30;28816;49.852;18.282;2023-11-22T04:15:33;21.320000;;20.990000;19.640000;;;;;;
43196;SPS30;28816;49.852;18.282;2023-11-22T04:20:35;21.470000;;20.970000;19.700000;;;;;;
43196;SPS30;28816;49.852;18.282;2023-11-22T04:25:37;21.390000;;21.230000;19.800000;;;;;;
43196;SPS30;28816;49.852;18.282;2023-11-22T04:30:40;21.870000;;21.610000;20.300000;;;;;;
43196;SPS30;28816;49.852;18.282;2023-11-22T04:35:42;25.250000;;24.730000;22.740000;;;;;;
43196;SPS30;28816;49.852;18.282;2023-11-22T04:40:45;26.790000;;26.460000;24.660000;;;;;;
43196;SPS30;28816;49.852;18.282;2023-11-22T04:45:47;26.770000;;26.310000;24.390000;;;;;;
43196;SPS30;28816;49.852;18.282;2023-11-22T04:50:49;28.640000;;28.110000;26.160000;;;;;;
43196;SPS30;28816;49.852;18.282;2023-11-22T04:55:51;28.680000;;27.830000;25.500000;;;;;;
43196;SPS30;28816;49.852;18.282;2023-11-22T05:00:53;29.620000;;28.730000;26.400000;;;;;;
43196;SPS30;28816;49.852;18.282;2023-11-22T05:05:57;32.620000;;31.600000;28.900000;;;;;;
43196;SPS30;28816;49.852;18.282;2023-11-22T05:10:59;32.120000;;31.230000;28.640000;;;;;;
43196;SPS30;28816;49.852;18.282;2023-11-22T05:16:01;31.320000;;30.690000;28.280000;;;;;;
43196;SPS30;28816;49.852;18.282;2023-11-22T05:21:04;32.570000;;31.080000;28.100000;;;;;;
43196;SPS30;28816;49.852;18.282;2023-11-22T05:26:06;29.780000;;28.850000;26.580000;;;;;;
43196;SPS30;28816;49.852;18.282;2023-11-22T05:31:08;28.620000;;27.800000;25.750000;;;;;;
43196;SPS30;28816;49.852;18.282;2023-11-22T05:36:10;29.240000;;28.610000;26.380000;;;;;;
43196;SPS30;28816;49.852;18.282;2023-11-22T05:41:12;31.080000;;29.810000;27.260000;;;;;;
43196;SPS30;28816;49.852;18.282;2023-11-22T05:46:14;31.230000;;30.420000;28.090000;;;;;;
43196;SPS30;28816;49.852;18.282;2023-11-22T05:51:17;32.700000;;31.400000;28.840000;;;;;;
43196;SPS30;28816;49.852;18.282;2023-11-22T05:56:19;31.580000;;30.810000;28.390000;;;;;;
43196;SPS30;28816;49.852;18.282;2023-11-22T06:01:21;30.460000;;29.120000;26.550000;;;;;;
43196;SPS30;28816;49.852;18.282;2023-11-22T06:06:23;29.940000;;29.410000;26.880000;;;;;;
43196;SPS30;28816;49.852;18.282;2023-11-22T06:11:26;29.270000;;28.440000;26.130000;;;;;;
43196;SPS30;28816;49.852;18.282;2023-11-22T06:16:28;32.130000;;31.250000;28.800000;;;;;;
43196;SPS30;28816;49.852;18.282;2023-11-22T06:21:30;34.140000;;33.260000;30.080000;;;;;;
43196;SPS30;28816;49.852;18.282;2023-11-22T06:26:32;32.120000;;31.280000;28.640000;;;;;;
43196;SPS30;28816;49.852;18.282;2023-11-22T06:31:34;30.030000;;29.410000;27.310000;;;;;;
43196;SPS30;28816;49.852;18.282;2023-11-22T06:36:37;31.240000;;30.030000;27.540000;;;;;;
43196;SPS30;28816;49.852;18.282;2023-11-22T06:41:39;30.840000;;29.860000;27.780000;;;;;;
43196;SPS30;28816;49.852;18.282;2023-11-22T06:46:41;28.420000;;27.380000;25.160000;;;;;;
43196;SPS30;28816;49.852;18.282;2023-11-22T06:51:43;26.110000;;25.480000;23.640000;;;;;;
43196;SPS30;28816;49.852;18.282;2023-11-22T06:56:45;24.060000;;23.540000;21.650000;;;;;;
43196;SPS30;28816;49.852;18.282;2023-11-22T07:01:48;23.810000;;23.530000;22.060000;;;;;;
43196;SPS30;28816;49.852;18.282;2023-11-22T07:06:50;23.820000;;23.390000;21.840000;;;;;;
43196;SPS30;28816;49.852;18.282;2023-11-22T07:11:52;23.250000;;22.800000;21.250000;;;;;;
43196;SPS30;28816;49.852;18.282;2023-11-22T07:16:54;25.380000;;25.080000;23.770000;;;;;;
43196;SPS30;28816;49.852;18.282;2023-11-22T07:21:56;23.800000;;23.410000;21.860000;;;;;;
43196;SPS30;28816;49.852;18.282;2023-11-22T07:26:59;24.260000;;23.580000;21.610000;;;;;;
43196;SPS30;28816;49.852;18.282;2023-11-22T07:32:01;24.390000;;24.180000;22.420000;;;;;;
43196;SPS30;28816;49.852;18.282;2023-11-22T07:37:04;24.930000;;24.450000;22.790000;;;;;;
43196;SPS30;28816;49.852;18.282;2023-11-22T07:42:05;24.630000;;24.370000;22.840000;;;;;;
43196;SPS30;28816;49.852;18.282;2023-11-22T07:47:08;50.090000;;46.310000;39.320000;;;;;;
43196;SPS30;28816;49.852;18.282;2023-11-22T07:52:10;40.360000;;35.560000;29.200000;;;;;;
43196;SPS30;28816;49.852;18.282;2023-11-22T07:57:12;29.140000;;28.020000;25.650000;;;;;;
43196;SPS30;28816;49.852;18.282;2023-11-22T08:02:14;25.100000;;24.730000;23.070000;;;;;;
43196;SPS30;28816;49.852;18.282;2023-11-22T08:07:17;25.170000;;24.840000;23.020000;;;;;;
43196;SPS30;28816;49.852;18.282;2023-11-22T08:12:19;27.130000;;26.950000;25.190000;;;;;;
43196;SPS30;28816;49.852;18.282;2023-11-22T08:17:21;26.120000;;25.840000;24.050000;;;;;;
43196;SPS30;28816;49.852;18.282;2023-11-22T08:22:23;27.650000;;27.540000;25.330000;;;;;;
43196;SPS30;28816;49.852;18.282;2023-11-22T08:27:25;26.510000;;25.940000;23.560000;;;;;;
43196;SPS30;28816;49.852;18.282;2023-11-22T08:32:27;26.100000;;25.580000;23.680000;;;;;;
43196;SPS30;28816;49.852;18.282;2023-11-22T08:37:30;25.730000;;25.320000;23.920000;;;;;;
43196;SPS30;28816;49.852;18.282;2023-11-22T08:42:32;26.380000;;25.900000;23.720000;;;;;;
43196;SPS30;28816;49.852;18.282;2023-11-22T08:47:34;27.470000;;27.040000;25.010000;;;;;;
43196;SPS30;28816;49.852;18.282;2023-11-22T08:52:36;26.690000;;26.270000;24.380000;;;;;;
43196;SPS30;28816;49.852;18.282;2023-11-22T08:57:39;26.620000;;26.120000;24.390000;;;;;;
43196;SPS30;28816;49.852;18.282;2023-11-22T09:02:41;27.880000;;27.710000;25.720000;;;;;;
43196;SPS30;28816;49.852;18.282;2023-11-22T09:07:43;28.470000;;28.150000;26.450000;;;;;;
43196;SPS30;28816;49.852;18.282;2023-11-22T09:12:45;29.240000;;29.090000;26.760000;;;;;;
43196;SPS30;28816;49.852;18.282;2023-11-22T09:17:47;29.770000;;29.050000;26.610000;;;;;;
43196;SPS30;28816;49.852;18.282;2023-11-22T09:22:49;29.670000;;29.420000;27.280000;;;;;;
43196;SPS30;28816;49.852;18.282;2023-11-22T09:27:52;29.090000;;28.610000;26.910000;;;;;;
43196;SPS30;28816;49.852;18.282;2023-11-22T09:32:56;29.950000;;29.560000;27.760000;;;;;;
43196;SPS30;28816;49.852;18.282;2023-11-22T09:37:58;30.120000;;29.500000;27.490000;;;;;;
43196;SPS30;28816;49.852;18.282;2023-11-22T09:43:00;28.820000;;28.400000;26.220000;;;;;;
43196;SPS30;28816;49.852;18.282;2023-11-22T09:48:03;30.880000;;30.260000;28.020000;;;;;;
43196;SPS30;28816;49.852;18.282;2023-11-22T09:53:07;31.430000;;31.100000;28.700000;;;;;;
43196;SPS30;28816;49.852;18.282;2023-11-22T09:58:11;31.540000;;30.930000;29.100000;;;;;;
43196;SPS30;28816;49.852;18.282;2023-11-22T10:03:13;31.620000;;30.910000;28.390000;;;;;;
43196;SPS30;28816;49.852;18.282;2023-11-22T10:08:15;30.330000;;29.820000;28.000000;;;;;;
43196;SPS30;28816;49.852;18.282;2023-11-22T10:13:17;30.610000;;29.980000;27.520000;;;;;;
43196;SPS30;28816;49.852;18.282;2023-11-22T10:18:19;29.270000;;28.750000;26.700000;;;;;;
43196;SPS30;28816;49.852;18.282;2023-11-22T10:23:22;30.300000;;30.000000;27.970000;;;;;;
43196;SPS30;28816;49.852;18.282;2023-11-22T10:28:24;31.230000;;30.780000;28.580000;;;;;;
43196;SPS30;28816;49.852;18.282;2023-11-22T10:33:26;31.520000;;31.200000;29.110000;;;;;;
43196;SPS30;28816;49.852;18.282;2023-11-22T10:38:30;29.070000;;28.160000;25.790000;;;;;;
43196;SPS30;28816;49.852;18.282;2023-11-22T10:43:33;27.510000;;27.360000;25.470000;;;;;;
43196;SPS30;28816;49.852;18.282;2023-11-22T10:48:35;28.780000;;28.310000;26.150000;;;;;;
43196;SPS30;28816;49.852;18.282;2023-11-22T10:53:38;26.950000;;26.690000;24.900000;;;;;;
43196;SPS30;28816;49.852;18.282;2023-11-22T10:58:45;27.260000;;26.960000;25.290000;;;;;;
43196;SPS30;28816;49.852;18.282;2023-11-22T11:03:48;28.440000;;28.310000;26.320000;;;;;;
43196;SPS30;28816;49.852;18.282;2023-11-22T11:08:55;25.510000;;25.030000;23.380000;;;;;;
43196;SPS30;28816;49.852;18.282;2023-11-22T11:13:59;24.620000;;24.110000;22.720000;;;;;;
43196;SPS30;28816;49.852;18.282;2023-11-22T11:19:02;25.980000;;25.850000;23.980000;;;;;;
43196;SPS30;28816;49.852;18.282;2023-11-22T11:24:05;25.280000;;24.870000;23.120000;;;;;;
43196;SPS30;28816;49.852;18.282;2023-11-22T11:29:07;23.740000;;23.620000;21.860000;;;;;;
43196;SPS30;28816;49.852;18.282;2023-11-22T11:34:29;22.680000;;22.330000;20.960000;;;;;;
43196;SPS30;28816;49.852;18.282;2023-11-22T11:39:31;21.690000;;21.210000;20.170000;;;;;;
43196;SPS30;28816;49.852;18.282;2023-11-22T11:44:33;23.800000;;23.700000;22.010000;;;;;;
43196;SPS30;28816;49.852;18.282;2023-11-22T11:49:35;23.250000;;22.840000;21.560000;;;;;;
43196;SPS30;28816;49.852;18.282;2023-11-22T11:54:38;21.180000;;20.920000;19.710000;;;;;;
43196;SPS30;28816;49.852;18.282;2023-11-22T11:59:40;23.650000;;23.350000;22.160000;;;;;;
43196;SPS30;28816;49.852;18.282;2023-11-22T12:04:42;21.480000;;21.210000;19.990000;;;;;;
43196;SPS30;28816;49.852;18.282;2023-11-22T12:09:45;21.380000;;20.970000;19.560000;;;;;;
43196;SPS30;28816;49.852;18.282;2023-11-22T12:14:47;20.290000;;20.110000;18.940000;;;;;;
43196;SPS30;28816;49.852;18.282;2023-11-22T12:19:50;21.280000;;21.110000;19.720000;;;;;;
43196;SPS30;28816;49.852;18.282;2023-11-22T12:24:52;21.140000;;20.890000;19.620000;;;;;;
43196;SPS30;28816;49.852;18.282;2023-11-22T12:29:54;19.760000;;19.840000;18.530000;;;;;;
43196;SPS30;28816;49.852;18.282;2023-11-22T12:34:56;22.640000;;22.250000;20.690000;;;;;;
43196;SPS30;28816;49.852;18.282;2023-11-22T12:39:58;20.920000;;20.850000;19.680000;;;;;;
43196;SPS30;28816;49.852;18.282;2023-11-22T12:45:06;21.180000;;20.810000;19.450000;;;;;;
43196;SPS30;28816;49.852;18.282;2023-11-22T12:50:17;17.360000;;17.180000;16.170000;;;;;;
43196;SPS30;28816;49.852;18.282;2023-11-22T12:55:35;18.900000;;18.700000;17.560000;;;;;;
43196;SPS30;28816;49.852;18.282;2023-11-22T13:00:41;18.370000;;18.200000;16.930000;;;;;;
43196;SPS30;28816;49.852;18.282;2023-11-22T13:05:44;22.050000;;21.740000;19.920000;;;;;;
43196;SPS30;28816;49.852;18.282;2023-11-22T13:10:46;19.170000;;18.940000;17.810000;;;;;;
43196;SPS30;28816;49.852;18.282;2023-11-22T13:15:49;20.490000;;20.470000;19.260000;;;;;;
43196;SPS30;28816;49.852;18.282;2023-11-22T13:20:51;19.830000;;19.690000;18.700000;;;;;;
43196;SPS30;28816;49.852;18.282;2023-11-22T13:25:53;22.720000;;22.610000;21.190000;;;;;;
43196;SPS30;28816;49.852;18.282;2023-11-22T13:30:55;20.210000;;20.050000;18.810000;;;;;;
43196;SPS30;28816;49.852;18.282;2023-11-22T13:35:57;22.050000;;21.850000;20.300000;;;;;;
43196;SPS30;28816;49.852;18.282;2023-11-22T13:40:59;21.720000;;21.330000;19.850000;;;;;;
43196;SPS30;28816;49.852;18.282;2023-11-22T13:46:01;21.920000;;21.840000;20.360000;;;;;;
43196;SPS30;28816;49.852;18.282;2023-11-22T13:51:03;19.150000;;18.800000;17.820000;;;;;;
43196;SPS30;28816;49.852;18.282;2023-11-22T13:56:06;18.780000;;18.770000;17.550000;;;;;;
43196;SPS30;28816;49.852;18.282;2023-11-22T14:01:08;18.820000;;18.660000;17.420000;;;;;;
43196;SPS30;28816;49.852;18.282;2023-11-22T14:06:10;19.240000;;19.210000;18.210000;;;;;;
43196;SPS30;28816;49.852;18.282;2023-11-22T14:11:12;20.130000;;19.990000;18.860000;;;;;;
43196;SPS30;28816;49.852;18.282;2023-11-22T14:16:15;21.760000;;21.630000;20.560000;;;;;;
43196;SPS30;28816;49.852;18.282;2023-11-22T14:21:17;20.480000;;20.380000;19.310000;;;;;;
43196;SPS30;28816;49.852;18.282;2023-11-22T14:26:19;18.430000;;18.260000;17.190000;;;;;;
43196;SPS30;28816;49.852;18.282;2023-11-22T14:31:21;17.610000;;17.480000;16.280000;;;;;;
43196;SPS30;28816;49.852;18.282;2023-11-22T14:36:23;17.430000;;17.330000;16.290000;;;;;;
43196;SPS30;28816;49.852;18.282;2023-11-22T14:41:25;17.610000;;17.420000;16.190000;;;;;;
43196;SPS30;28816;49.852;18.282;2023-11-22T14:46:27;19.850000;;19.660000;18.550000;;;;;;
43196;SPS30;28816;49.852;18.282;2023-11-22T14:51:29;17.830000;;17.820000;16.810000;;;;;;
43196;SPS30;28816;49.852;18.282;2023-11-22T14:56:30;16.450000;;16.390000;15.360000;;;;;;
43196;SPS30;28816;49.852;18.282;2023-11-22T15:01:33;16.910000;;16.880000;15.890000;;;;;;
43196;SPS30;28816;49.852;18.282;2023-11-22T15:06:35;18.910000;;18.840000;17.370000;;;;;;
43196;SPS30;28816;49.852;18.282;2023-11-22T15:11:36;18.110000;;17.990000;16.710000;;;;;;
43196;SPS30;28816;49.852;18.282;2023-11-22T15:16:39;18.260000;;18.110000;16.880000;;;;;;
43196;SPS30;28816;49.852;18.282;2023-11-22T15:21:40;20.240000;;20.130000;18.970000;;;;;;
43196;SPS30;28816;49.852;18.282;2023-11-22T15:26:43;18.960000;;18.900000;17.740000;;;;;;
43196;SPS30;28816;49.852;18.282;2023-11-22T15:31:44;20.320000;;20.290000;18.980000;;;;;;
43196;SPS30;28816;49.852;18.282;2023-11-22T15:36:47;20.350000;;20.210000;19.330000;;;;;;
43196;SPS30;28816;49.852;18.282;2023-11-22T15:41:49;22.950000;;22.580000;20.860000;;;;;;
43196;SPS30;28816;49.852;18.282;2023-11-22T15:46:51;21.010000;;20.760000;19.470000;;;;;;
43196;SPS30;28816;49.852;18.282;2023-11-22T15:51:53;22.060000;;21.870000;20.130000;;;;;;
43196;SPS30;28816;49.852;18.282;2023-11-22T15:56:55;21.780000;;21.380000;20.230000;;;;;;
43196;SPS30;28816;49.852;18.282;2023-11-22T16:01:57;21.640000;;21.340000;20.200000;;;;;;
43196;SPS30;28816;49.852;18.282;2023-11-22T16:06:59;22.430000;;21.940000;20.490000;;;;;;
43196;SPS30;28816;49.852;18.282;2023-11-22T16:12:01;21.730000;;21.320000;20.000000;;;;;;
43196;SPS30;28816;49.852;18.282;2023-11-22T16:17:04;23.210000;;23.000000;21.670000;;;;;;
43196;SPS30;28816;49.852;18.282;2023-11-22T16:22:06;24.960000;;24.490000;22.600000;;;;;;
43196;SPS30;28816;49.852;18.282;2023-11-22T16:27:08;23.670000;;23.500000;22.050000;;;;;;
43196;SPS30;28816;49.852;18.282;2023-11-22T16:32:10;23.450000;;23.210000;21.720000;;;;;;
43196;SPS30;28816;49.852;18.282;2023-11-22T16:37:12;24.470000;;24.090000;22.260000;;;;;;
43196;SPS30;28816;49.852;18.282;2023-11-22T16:42:14;24.650000;;24.280000;22.790000;;;;;;
43196;SPS30;28816;49.852;18.282;2023-11-22T16:47:16;21.510000;;21.080000;19.890000;;;;;;
43196;SPS30;28816;49.852;18.282;2023-11-22T16:52:19;23.560000;;23.390000;21.840000;;;;;;
43196;SPS30;28816;49.852;18.282;2023-11-22T16:57:21;26.680000;;25.960000;23.920000;;;;;;
43196;SPS30;28816;49.852;18.282;2023-11-22T17:02:23;23.580000;;23.440000;22.110000;;;;;;
43196;SPS30;28816;49.852;18.282;2023-11-22T17:07:28;23.560000;;23.300000;21.600000;;;;;;
43196;SPS30;28816;49.852;18.282;2023-11-22T17:12:30;22.390000;;22.060000;20.670000;;;;;;
43196;SPS30;28816;49.852;18.282;2023-11-22T17:17:32;25.210000;;24.740000;22.920000;;;;;;
43196;SPS30;28816;49.852;18.282;2023-11-22T17:22:34;26.100000;;25.760000;23.980000;;;;;;
43196;SPS30;28816;49.852;18.282;2023-11-22T17:27:36;24.180000;;23.800000;22.070000;;;;;;
43196;SPS30;28816;49.852;18.282;2023-11-22T17:32:39;24.260000;;24.080000;22.530000;;;;;;
43196;SPS30;28816;49.852;18.282;2023-11-22T17:37:41;25.910000;;25.510000;23.750000;;;;;;
43196;SPS30;28816;49.852;18.282;2023-11-22T17:42:43;23.080000;;22.950000;21.440000;;;;;;
43196;SPS30;28816;49.852;18.282;2023-11-22T17:47:46;25.320000;;24.770000;23.200000;;;;;;
43196;SPS30;28816;49.852;18.282;2023-11-22T17:52:48;26.790000;;26.420000;24.740000;;;;;;
43196;SPS30;28816;49.852;18.282;2023-11-22T17:57:50;25.340000;;24.970000;23.180000;;;;;;
43196;SPS30;28816;49.852;18.282;2023-11-22T18:02:52;24.770000;;24.510000;22.880000;;;;;;
43196;SPS30;28816;49.852;18.282;2023-11-22T18:07:54;25.370000;;24.650000;22.740000;;;;;;
43196;SPS30;28816;49.852;18.282;2023-11-22T18:12:56;28.130000;;27.520000;25.490000;;;;;;
43196;SPS30;28816;49.852;18.282;2023-11-22T18:17:58;27.020000;;26.870000;24.980000;;;;;;
43196;SPS30;28816;49.852;18.282;2023-11-22T18:23:01;27.070000;;26.440000;24.570000;;;;;;
43196;SPS30;28816;49.852;18.282;2023-11-22T18:28:03;36.140000;;35.410000;33.380000;;;;;;
43196;SPS30;28816;49.852;18.282;2023-11-22T18:33:05;30.350000;;29.620000;27.080000;;;;;;
43196;SPS30;28816;49.852;18.282;2023-11-22T18:38:07;30.450000;;29.690000;27.240000;;;;;;
43196;SPS30;28816;49.852;18.282;2023-11-22T18:43:09;31.910000;;31.700000;29.220000;;;;;;
43196;SPS30;28816;49.852;18.282;2023-11-22T18:48:11;28.550000;;28.000000;25.430000;;;;;;
43196;SPS30;28816;49.852;18.282;2023-11-22T18:53:13;27.850000;;27.290000;25.560000;;;;;;
43196;SPS30;28816;49.852;18.282;2023-11-22T18:58:15;32.040000;;31.390000;28.500000;;;;;;
43196;SPS30;28816;49.852;18.282;2023-11-22T19:03:18;34.160000;;32.840000;29.880000;;;;;;
43196;SPS30;28816;49.852;18.282;2023-11-22T19:08:20;35.360000;;34.250000;31.090000;;;;;;
43196;SPS30;28816;49.852;18.282;2023-11-22T19:13:22;34.480000;;33.700000;31.080000;;;;;;
43196;SPS30;28816;49.852;18.282;2023-11-22T19:18:25;34.520000;;33.840000;31.520000;;;;;;
43196;SPS30;28816;49.852;18.282;2023-11-22T19:23:27;35.560000;;34.900000;32.290000;;;;;;
43196;SPS30;28816;49.852;18.282;2023-11-22T19:28:29;35.940000;;34.870000;31.920000;;;;;;
43196;SPS30;28816;49.852;18.282;2023-11-22T19:33:31;34.930000;;34.040000;31.230000;;;;;;
43196;SPS30;28816;49.852;18.282;2023-11-22T19:38:33;33.900000;;33.050000;30.520000;;;;;;
43196;SPS30;28816;49.852;18.282;2023-11-22T19:43:37;36.240000;;34.770000;32.060000;;;;;;
43196;SPS30;28816;49.852;18.282;2023-11-22T19:48:40;33.370000;;32.620000;30.310000;;;;;;
43196;SPS30;28816;49.852;18.282;2023-11-22T19:53:42;31.590000;;30.840000;28.930000;;;;;;
43196;SPS30;28816;49.852;18.282;2023-11-22T19:58:44;34.630000;;33.200000;30.060000;;;;;;
43196;SPS30;28816;49.852;18.282;2023-11-22T20:03:46;32.980000;;31.990000;29.380000;;;;;;
43196;SPS30;28816;49.852;18.282;2023-11-22T20:08:48;31.660000;;30.900000;29.130000;;;;;;
43196;SPS30;28816;49.852;18.282;2023-11-22T20:13:50;30.000000;;29.460000;27.350000;;;;;;
43196;SPS30;28816;49.852;18.282;2023-11-22T20:18:52;31.710000;;30.550000;28.000000;;;;;;
43196;SPS30;28816;49.852;18.282;2023-11-22T20:23:55;28.010000;;27.550000;25.600000;;;;;;
43196;SPS30;28816;49.852;18.282;2023-11-22T20:28:56;31.060000;;30.290000;27.860000;;;;;;
43196;SPS30;28816;49.852;18.282;2023-11-22T20:33:59;32.800000;;31.800000;29.090000;;;;;;
43196;SPS30;28816;49.852;18.282;2023-11-22T20:39:00;34.290000;;33.290000;29.900000;;;;;;
43196;SPS30;28816;49.852;18.282;2023-11-22T20:44:03;33.130000;;32.280000;29.440000;;;;;;
43196;SPS30;28816;49.852;18.282;2023-11-22T20:49:05;34.750000;;34.030000;31.360000;;;;;;
43196;SPS30;28816;49.852;18.282;2023-11-22T20:54:07;37.590000;;36.210000;32.960000;;;;;;
43196;SPS30;28816;49.852;18.282;2023-11-22T20:59:09;39.030000;;37.760000;34.650000;;;;;;
43196;SPS30;28816;49.852;18.282;2023-11-22T21:04:11;34.310000;;33.250000;30.720000;;;;;;
43196;SPS30;28816;49.852;18.282;2023-11-22T21:09:13;37.280000;;36.020000;32.640000;;;;;;
43196;SPS30;28816;49.852;18.282;2023-11-22T21:14:15;35.670000;;33.920000;30.920000;;;;;;
43196;SPS30;28816;49.852;18.282;2023-11-22T21:19:17;38.390000;;36.300000;32.150000;;;;;;
43196;SPS30;28816;49.852;18.282;2023-11-22T21:24:20;35.950000;;35.260000;32.380000;;;;;;
43196;SPS30;28816;49.852;18.282;2023-11-22T21:29:22;36.020000;;34.770000;31.660000;;;;;;
43196;SPS30;28816;49.852;18.282;2023-11-22T21:34:24;35.520000;;34.350000;31.440000;;;;;;
43196;SPS30;28816;49.852;18.282;2023-11-22T21:39:26;33.700000;;32.950000;30.120000;;;;;;
43196;SPS30;28816;49.852;18.282;2023-11-22T21:44:28;37.620000;;36.010000;32.670000;;;;;;
43196;SPS30;28816;49.852;18.282;2023-11-22T21:49:30;32.910000;;31.790000;29.210000;;;;;;
43196;SPS30;28816;49.852;18.282;2023-11-22T21:54:35;33.370000;;32.220000;29.490000;;;;;;
43196;SPS30;28816;49.852;18.282;2023-11-22T22:04:39;28.070000;;26.920000;24.240000;;;;;;
43196;SPS30;28816;49.852;18.282;2023-11-22T22:09:41;30.240000;;29.290000;26.530000;;;;;;
43196;SPS30;28816;49.852;18.282;2023-11-22T22:14:43;28.890000;;27.840000;25.240000;;;;;;
43196;SPS30;28816;49.852;18.282;2023-11-22T22:19:45;27.290000;;26.480000;24.170000;;;;;;
43196;SPS30;28816;49.852;18.282;2023-11-22T22:24:47;25.140000;;24.440000;22.840000;;;;;;
43196;SPS30;28816;49.852;18.282;2023-11-22T22:29:50;26.860000;;26.220000;24.540000;;;;;;
43196;SPS30;28816;49.852;18.282;2023-11-22T22:34:52;27.030000;;26.000000;23.410000;;;;;;